ドバイ の空港の天気 - METARとTAF

ドバイ国際空港 ( OMDB / DXB ) - アラブ首長国連邦 ドバイ
飛行場実況気象(Metar)
観測時間12/10 09:00 GST (12/10 05:00 UTC)
風向・風速西北西 6m/s
視程10km以上
天気現象
なし
気温26℃
湿度58%
気圧1016hPa
METAROMDB 100500Z 30011KT 220V340 CAVOK 26/17 Q1016 NOSIG
過去の天気等 Google飛行場航空写真 Wunderground天気予報

過去48時間のMETAR

飛行場予報(TAF)
発表時間: 12/10 08:58 GST (12/10 04:58 UTC)
予報対象時間: 10日10時 GST ~ 11日16時 GST
風向・風速西北西 6m/s
視程10km以上
なし
10日21時 GST ~ 10日23時 GST に徐々に
風向・風速南南西 3m/s
11日9時 GST ~ 11日11時 GST に徐々に
風向・風速西 7m/s
TAF OMDB 100458Z 1006/1112 29012KT CAVOK
BECMG 1017/1019 20005KT
BECMG 1105/1107 28014KT